sensor_id;sensor_type;location;lat;lon;timestamp;P1;durP1;ratioP1;P2;durP2;ratioP2
52718;SDS011;38616;42.140;24.760;2023-10-19T00:02:04;17.20;;;10.30;;
52718;SDS011;38616;42.140;24.760;2023-10-19T00:04:31;16.58;;;10.23;;
52718;SDS011;38616;42.140;24.760;2023-10-19T00:06:58;17.42;;;10.85;;
52718;SDS011;38616;42.140;24.760;2023-10-19T00:09:23;17.55;;;9.65;;
52718;SDS011;38616;42.140;24.760;2023-10-19T00:11:50;16.23;;;10.05;;
52718;SDS011;38616;42.140;24.760;2023-10-19T00:14:17;14.65;;;9.70;;
52718;SDS011;38616;42.140;24.760;2023-10-19T00:16:46;16.58;;;10.07;;
52718;SDS011;38616;42.140;24.760;2023-10-19T00:19:18;22.73;;;10.75;;
52718;SDS011;38616;42.140;24.760;2023-10-19T00:21:46;15.02;;;9.93;;
52718;SDS011;38616;42.140;24.760;2023-10-19T00:24:16;17.13;;;9.63;;
52718;SDS011;38616;42.140;24.760;2023-10-19T00:26:44;18.52;;;10.07;;
52718;SDS011;38616;42.140;24.760;2023-10-19T00:29:10;18.27;;;10.50;;
52718;SDS011;38616;42.140;24.760;2023-10-19T00:31:59;17.85;;;9.85;;
52718;SDS011;38616;42.140;24.760;2023-10-19T00:34:28;17.05;;;10.90;;
52718;SDS011;38616;42.140;24.760;2023-10-19T00:36:56;18.23;;;10.02;;
52718;SDS011;38616;42.140;24.760;2023-10-19T00:39:22;16.52;;;9.73;;
52718;SDS011;38616;42.140;24.760;2023-10-19T00:41:52;18.05;;;9.65;;
52718;SDS011;38616;42.140;24.760;2023-10-19T00:44:22;15.20;;;9.23;;
52718;SDS011;38616;42.140;24.760;2023-10-19T00:46:50;18.85;;;10.07;;
52718;SDS011;38616;42.140;24.760;2023-10-19T00:49:25;18.70;;;10.43;;
52718;SDS011;38616;42.140;24.760;2023-10-19T00:51:52;20.85;;;10.90;;
52718;SDS011;38616;42.140;24.760;2023-10-19T00:54:34;18.73;;;11.07;;
52718;SDS011;38616;42.140;24.760;2023-10-19T00:57:02;19.85;;;11.32;;
52718;SDS011;38616;42.140;24.760;2023-10-19T00:59:33;19.77;;;11.15;;
52718;SDS011;38616;42.140;24.760;2023-10-19T01:02:07;23.48;;;11.30;;
52718;SDS011;38616;42.140;24.760;2023-10-19T01:04:50;20.90;;;10.85;;
52718;SDS011;38616;42.140;24.760;2023-10-19T01:07:30;25.40;;;11.27;;
52718;SDS011;38616;42.140;24.760;2023-10-19T01:10:00;17.95;;;10.00;;
52718;SDS011;38616;42.140;24.760;2023-10-19T01:12:29;18.05;;;9.98;;
52718;SDS011;38616;42.140;24.760;2023-10-19T01:17:43;18.77;;;10.68;;
52718;SDS011;38616;42.140;24.760;2023-10-19T01:20:10;17.52;;;10.00;;
52718;SDS011;38616;42.140;24.760;2023-10-19T01:22:47;16.80;;;10.48;;
52718;SDS011;38616;42.140;24.760;2023-10-19T01:25:43;18.08;;;10.68;;
52718;SDS011;38616;42.140;24.760;2023-10-19T01:28:17;17.13;;;9.73;;
52718;SDS011;38616;42.140;24.760;2023-10-19T01:30:43;17.38;;;10.15;;
52718;SDS011;38616;42.140;24.760;2023-10-19T01:33:22;16.77;;;9.68;;
52718;SDS011;38616;42.140;24.760;2023-10-19T01:35:48;18.08;;;10.15;;
52718;SDS011;38616;42.140;24.760;2023-10-19T01:38:32;18.38;;;11.20;;
52718;SDS011;38616;42.140;24.760;2023-10-19T01:41:02;16.92;;;10.18;;
52718;SDS011;38616;42.140;24.760;2023-10-19T01:43:38;19.02;;;9.80;;
52718;SDS011;38616;42.140;24.760;2023-10-19T01:46:05;12.48;;;7.80;;
52718;SDS011;38616;42.140;24.760;2023-10-19T01:48:38;22.42;;;11.38;;
52718;SDS011;38616;42.140;24.760;2023-10-19T01:51:09;16.63;;;11.02;;
52718;SDS011;38616;42.140;24.760;2023-10-19T01:53:39;17.63;;;11.02;;
52718;SDS011;38616;42.140;24.760;2023-10-19T01:56:11;19.77;;;11.27;;
52718;SDS011;38616;42.140;24.760;2023-10-19T01:58:42;16.90;;;10.68;;
52718;SDS011;38616;42.140;24.760;2023-10-19T02:01:09;19.38;;;10.90;;
52718;SDS011;38616;42.140;24.760;2023-10-19T02:03:35;19.58;;;10.20;;
52718;SDS011;38616;42.140;24.760;2023-10-19T02:06:01;15.10;;;9.85;;
52718;SDS011;38616;42.140;24.760;2023-10-19T02:09:06;21.73;;;10.07;;
52718;SDS011;38616;42.140;24.760;2023-10-19T02:11:41;17.80;;;10.20;;
52718;SDS011;38616;42.140;24.760;2023-10-19T02:14:07;16.70;;;10.27;;
52718;SDS011;38616;42.140;24.760;2023-10-19T02:16:40;17.67;;;10.68;;
52718;SDS011;38616;42.140;24.760;2023-10-19T02:21:33;17.48;;;10.30;;
52718;SDS011;38616;42.140;24.760;2023-10-19T02:24:04;17.55;;;10.15;;
52718;SDS011;38616;42.140;24.760;2023-10-19T02:26:32;20.98;;;11.75;;
52718;SDS011;38616;42.140;24.760;2023-10-19T02:28:58;19.98;;;10.52;;
52718;SDS011;38616;42.140;24.760;2023-10-19T02:31:24;20.33;;;11.27;;
52718;SDS011;38616;42.140;24.760;2023-10-19T02:33:51;16.02;;;10.68;;
52718;SDS011;38616;42.140;24.760;2023-10-19T02:36:24;19.73;;;10.00;;
52718;SDS011;38616;42.140;24.760;2023-10-19T02:38:53;20.45;;;10.27;;
52718;SDS011;38616;42.140;24.760;2023-10-19T02:41:18;16.70;;;10.00;;
52718;SDS011;38616;42.140;24.760;2023-10-19T02:43:47;17.40;;;10.60;;
52718;SDS011;38616;42.140;24.760;2023-10-19T02:46:17;22.20;;;10.60;;
52718;SDS011;38616;42.140;24.760;2023-10-19T02:48:43;20.30;;;9.93;;
52718;SDS011;38616;42.140;24.760;2023-10-19T02:51:13;16.02;;;9.85;;
52718;SDS011;38616;42.140;24.760;2023-10-19T02:53:39;18.55;;;10.35;;
52718;SDS011;38616;42.140;24.760;2023-10-19T02:56:12;19.05;;;10.15;;
52718;SDS011;38616;42.140;24.760;2023-10-19T02:58:40;22.92;;;11.93;;
52718;SDS011;38616;42.140;24.760;2023-10-19T03:01:14;22.15;;;14.15;;
52718;SDS011;38616;42.140;24.760;2023-10-19T03:03:44;24.38;;;12.70;;
52718;SDS011;38616;42.140;24.760;2023-10-19T03:06:09;19.67;;;10.63;;
52718;SDS011;38616;42.140;24.760;2023-10-19T03:08:35;17.17;;;9.07;;
52718;SDS011;38616;42.140;24.760;2023-10-19T03:11:01;18.05;;;9.90;;
52718;SDS011;38616;42.140;24.760;2023-10-19T03:13:29;16.67;;;8.82;;
52718;SDS011;38616;42.140;24.760;2023-10-19T03:15:57;16.00;;;8.45;;
52718;SDS011;38616;42.140;24.760;2023-10-19T03:18:23;15.68;;;8.80;;
52718;SDS011;38616;42.140;24.760;2023-10-19T03:20:51;17.33;;;8.93;;
52718;SDS011;38616;42.140;24.760;2023-10-19T03:23:16;15.60;;;8.07;;
52718;SDS011;38616;42.140;24.760;2023-10-19T03:25:42;14.32;;;8.27;;
52718;SDS011;38616;42.140;24.760;2023-10-19T03:28:26;14.85;;;8.55;;
52718;SDS011;38616;42.140;24.760;2023-10-19T03:30:51;15.20;;;8.65;;
52718;SDS011;38616;42.140;24.760;2023-10-19T03:33:20;14.00;;;9.10;;
52718;SDS011;38616;42.140;24.760;2023-10-19T03:35:46;13.95;;;8.80;;
52718;SDS011;38616;42.140;24.760;2023-10-19T03:38:12;16.35;;;9.07;;
52718;SDS011;38616;42.140;24.760;2023-10-19T03:40:42;17.40;;;8.07;;
52718;SDS011;38616;42.140;24.760;2023-10-19T03:43:16;19.08;;;8.48;;
52718;SDS011;38616;42.140;24.760;2023-10-19T03:45:43;14.05;;;8.10;;
52718;SDS011;38616;42.140;24.760;2023-10-19T03:48:20;14.43;;;8.23;;
52718;SDS011;38616;42.140;24.760;2023-10-19T03:50:55;17.27;;;10.40;;
52718;SDS011;38616;42.140;24.760;2023-10-19T03:53:22;13.35;;;7.75;;
52718;SDS011;38616;42.140;24.760;2023-10-19T03:55:48;13.77;;;8.35;;
52718;SDS011;38616;42.140;24.760;2023-10-19T03:58:19;13.25;;;7.90;;
52718;SDS011;38616;42.140;24.760;2023-10-19T04:00:46;12.52;;;7.68;;
52718;SDS011;38616;42.140;24.760;2023-10-19T04:03:13;12.25;;;7.13;;
52718;SDS011;38616;42.140;24.760;2023-10-19T04:05:39;12.45;;;7.10;;
52718;SDS011;38616;42.140;24.760;2023-10-19T04:08:06;12.10;;;7.65;;
52718;SDS011;38616;42.140;24.760;2023-10-19T04:10:39;12.52;;;7.32;;
52718;SDS011;38616;42.140;24.760;2023-10-19T04:13:09;14.38;;;8.27;;
52718;SDS011;38616;42.140;24.760;2023-10-19T04:15:36;13.82;;;8.02;;
52718;SDS011;38616;42.140;24.760;2023-10-19T04:18:02;11.55;;;7.55;;
52718;SDS011;38616;42.140;24.760;2023-10-19T04:20:35;12.93;;;7.57;;
52718;SDS011;38616;42.140;24.760;2023-10-19T04:23:21;14.60;;;8.57;;
52718;SDS011;38616;42.140;24.760;2023-10-19T04:25:51;16.63;;;8.57;;
52718;SDS011;38616;42.140;24.760;2023-10-19T04:28:17;16.85;;;9.50;;
52718;SDS011;38616;42.140;24.760;2023-10-19T04:30:47;15.63;;;8.20;;
52718;SDS011;38616;42.140;24.760;2023-10-19T04:33:13;12.93;;;8.40;;
52718;SDS011;38616;42.140;24.760;2023-10-19T04:35:41;17.33;;;8.88;;
52718;SDS011;38616;42.140;24.760;2023-10-19T04:38:07;13.80;;;9.10;;
52718;SDS011;38616;42.140;24.760;2023-10-19T04:40:33;14.02;;;8.55;;
52718;SDS011;38616;42.140;24.760;2023-10-19T04:43:01;17.52;;;8.80;;
52718;SDS011;38616;42.140;24.760;2023-10-19T04:45:29;12.65;;;7.82;;
52718;SDS011;38616;42.140;24.760;2023-10-19T04:47:54;14.27;;;8.38;;
52718;SDS011;38616;42.140;24.760;2023-10-19T04:50:20;14.20;;;9.20;;
52718;SDS011;38616;42.140;24.760;2023-10-19T04:52:46;12.60;;;8.13;;
52718;SDS011;38616;42.140;24.760;2023-10-19T04:55:12;14.35;;;7.93;;
52718;SDS011;38616;42.140;24.760;2023-10-19T04:57:38;14.52;;;8.48;;
52718;SDS011;38616;42.140;24.760;2023-10-19T05:00:03;14.80;;;9.30;;
52718;SDS011;38616;42.140;24.760;2023-10-19T05:02:29;13.50;;;7.95;;
52718;SDS011;38616;42.140;24.760;2023-10-19T05:04:55;15.40;;;8.02;;
52718;SDS011;38616;42.140;24.760;2023-10-19T05:07:20;14.68;;;7.50;;
52718;SDS011;38616;42.140;24.760;2023-10-19T05:09:46;16.50;;;8.82;;
52718;SDS011;38616;42.140;24.760;2023-10-19T05:12:12;14.70;;;7.90;;
52718;SDS011;38616;42.140;24.760;2023-10-19T05:14:39;16.38;;;9.18;;
52718;SDS011;38616;42.140;24.760;2023-10-19T05:17:06;15.95;;;9.07;;
52718;SDS011;38616;42.140;24.760;2023-10-19T05:19:34;15.32;;;8.98;;
52718;SDS011;38616;42.140;24.760;2023-10-19T05:22:01;16.30;;;10.00;;
52718;SDS011;38616;42.140;24.760;2023-10-19T05:24:31;19.13;;;9.57;;
52718;SDS011;38616;42.140;24.760;2023-10-19T05:26:57;24.02;;;13.52;;
52718;SDS011;38616;42.140;24.760;2023-10-19T05:29:23;20.02;;;11.43;;
52718;SDS011;38616;42.140;24.760;2023-10-19T05:31:50;16.45;;;9.05;;
52718;SDS011;38616;42.140;24.760;2023-10-19T05:34:21;15.40;;;9.07;;
52718;SDS011;38616;42.140;24.760;2023-10-19T05:36:46;12.75;;;8.43;;
52718;SDS011;38616;42.140;24.760;2023-10-19T05:39:14;15.55;;;8.00;;
52718;SDS011;38616;42.140;24.760;2023-10-19T05:41:43;11.07;;;7.57;;
52718;SDS011;38616;42.140;24.760;2023-10-19T05:44:08;14.88;;;9.25;;
52718;SDS011;38616;42.140;24.760;2023-10-19T05:46:34;15.30;;;8.52;;
52718;SDS011;38616;42.140;24.760;2023-10-19T05:49:00;16.05;;;8.13;;
52718;SDS011;38616;42.140;24.760;2023-10-19T05:51:28;16.58;;;8.40;;
52718;SDS011;38616;42.140;24.760;2023-10-19T05:53:54;15.18;;;9.02;;
52718;SDS011;38616;42.140;24.760;2023-10-19T05:56:26;14.55;;;8.15;;
52718;SDS011;38616;42.140;24.760;2023-10-19T05:58:52;13.20;;;7.60;;
52718;SDS011;38616;42.140;24.760;2023-10-19T06:01:19;16.27;;;8.63;;
52718;SDS011;38616;42.140;24.760;2023-10-19T06:03:45;15.93;;;8.68;;
52718;SDS011;38616;42.140;24.760;2023-10-19T06:06:13;26.65;;;9.63;;
52718;SDS011;38616;42.140;24.760;2023-10-19T06:08:42;14.38;;;8.65;;
52718;SDS011;38616;42.140;24.760;2023-10-19T06:11:08;14.07;;;7.97;;
52718;SDS011;38616;42.140;24.760;2023-10-19T06:13:33;12.45;;;7.53;;
52718;SDS011;38616;42.140;24.760;2023-10-19T06:15:59;17.50;;;8.63;;
52718;SDS011;38616;42.140;24.760;2023-10-19T06:18:24;25.38;;;9.10;;
52718;SDS011;38616;42.140;24.760;2023-10-19T06:20:50;16.13;;;8.38;;
52718;SDS011;38616;42.140;24.760;2023-10-19T06:23:16;16.27;;;6.72;;
52718;SDS011;38616;42.140;24.760;2023-10-19T06:25:43;14.60;;;8.20;;
52718;SDS011;38616;42.140;24.760;2023-10-19T06:28:08;15.88;;;7.95;;
52718;SDS011;38616;42.140;24.760;2023-10-19T06:30:36;16.45;;;7.57;;
52718;SDS011;38616;42.140;24.760;2023-10-19T06:33:02;14.35;;;7.70;;
52718;SDS011;38616;42.140;24.760;2023-10-19T06:35:28;15.73;;;8.65;;
52718;SDS011;38616;42.140;24.760;2023-10-19T06:37:57;16.52;;;8.48;;
52718;SDS011;38616;42.140;24.760;2023-10-19T06:40:26;18.15;;;8.30;;
52718;SDS011;38616;42.140;24.760;2023-10-19T06:42:56;16.80;;;8.40;;
52718;SDS011;38616;42.140;24.760;2023-10-19T06:45:23;29.35;;;9.48;;
52718;SDS011;38616;42.140;24.760;2023-10-19T06:47:50;15.88;;;7.85;;
52718;SDS011;38616;42.140;24.760;2023-10-19T06:50:17;20.75;;;8.57;;
52718;SDS011;38616;42.140;24.760;2023-10-19T06:55:13;17.13;;;8.88;;
52718;SDS011;38616;42.140;24.760;2023-10-19T06:57:46;17.50;;;9.32;;
52718;SDS011;38616;42.140;24.760;2023-10-19T07:00:16;14.10;;;8.70;;
52718;SDS011;38616;42.140;24.760;2023-10-19T07:02:47;14.60;;;8.35;;
52718;SDS011;38616;42.140;24.760;2023-10-19T07:05:14;18.05;;;6.72;;
52718;SDS011;38616;42.140;24.760;2023-10-19T07:07:43;21.30;;;9.13;;
52718;SDS011;38616;42.140;24.760;2023-10-19T07:10:10;21.48;;;10.02;;
52718;SDS011;38616;42.140;24.760;2023-10-19T07:12:40;23.13;;;10.35;;
52718;SDS011;38616;42.140;24.760;2023-10-19T07:15:09;15.48;;;10.07;;
52718;SDS011;38616;42.140;24.760;2023-10-19T07:17:44;20.52;;;11.02;;
52718;SDS011;38616;42.140;24.760;2023-10-19T07:20:12;21.35;;;11.82;;
52718;SDS011;38616;42.140;24.760;2023-10-19T07:22:53;17.75;;;10.35;;
52718;SDS011;38616;42.140;24.760;2023-10-19T07:25:20;19.08;;;11.25;;
52718;SDS011;38616;42.140;24.760;2023-10-19T07:27:49;21.25;;;10.50;;
52718;SDS011;38616;42.140;24.760;2023-10-19T07:30:19;25.77;;;14.13;;
52718;SDS011;38616;42.140;24.760;2023-10-19T07:32:51;25.77;;;13.52;;
52718;SDS011;38616;42.140;24.760;2023-10-19T07:35:27;20.30;;;11.05;;
52718;SDS011;38616;42.140;24.760;2023-10-19T07:37:53;17.30;;;10.10;;
52718;SDS011;38616;42.140;24.760;2023-10-19T07:40:19;21.65;;;12.32;;
52718;SDS011;38616;42.140;24.760;2023-10-19T07:42:45;25.40;;;12.55;;
52718;SDS011;38616;42.140;24.760;2023-10-19T07:45:11;22.38;;;11.48;;
52718;SDS011;38616;42.140;24.760;2023-10-19T07:47:38;19.60;;;10.32;;
52718;SDS011;38616;42.140;24.760;2023-10-19T07:50:07;22.98;;;10.40;;
52718;SDS011;38616;42.140;24.760;2023-10-19T07:52:37;19.63;;;12.18;;
52718;SDS011;38616;42.140;24.760;2023-10-19T07:55:04;22.00;;;13.80;;
52718;SDS011;38616;42.140;24.760;2023-10-19T07:57:30;24.10;;;13.82;;
52718;SDS011;38616;42.140;24.760;2023-10-19T07:59:55;21.15;;;11.68;;
52718;SDS011;38616;42.140;24.760;2023-10-19T08:02:21;18.55;;;9.93;;
52718;SDS011;38616;42.140;24.760;2023-10-19T08:04:49;25.95;;;13.48;;
52718;SDS011;38616;42.140;24.760;2023-10-19T08:07:17;19.98;;;12.25;;
52718;SDS011;38616;42.140;24.760;2023-10-19T08:09:42;23.27;;;13.32;;
52718;SDS011;38616;42.140;24.760;2023-10-19T08:12:10;30.48;;;13.77;;
52718;SDS011;38616;42.140;24.760;2023-10-19T08:14:48;20.95;;;11.95;;
52718;SDS011;38616;42.140;24.760;2023-10-19T08:17:15;19.10;;;11.23;;
52718;SDS011;38616;42.140;24.760;2023-10-19T08:19:41;20.67;;;10.25;;
52718;SDS011;38616;42.140;24.760;2023-10-19T08:22:07;20.65;;;11.07;;
52718;SDS011;38616;42.140;24.760;2023-10-19T08:24:32;17.67;;;11.20;;
52718;SDS011;38616;42.140;24.760;2023-10-19T08:27:00;20.50;;;10.73;;
52718;SDS011;38616;42.140;24.760;2023-10-19T08:29:26;16.00;;;9.90;;
52718;SDS011;38616;42.140;24.760;2023-10-19T08:31:55;19.40;;;10.60;;
52718;SDS011;38616;42.140;24.760;2023-10-19T08:34:22;21.33;;;11.10;;
52718;SDS011;38616;42.140;24.760;2023-10-19T08:36:50;19.25;;;10.70;;
52718;SDS011;38616;42.140;24.760;2023-10-19T08:39:16;20.63;;;10.25;;
52718;SDS011;38616;42.140;24.760;2023-10-19T08:41:43;21.42;;;11.00;;
52718;SDS011;38616;42.140;24.760;2023-10-19T08:44:09;25.33;;;11.77;;
52718;SDS011;38616;42.140;24.760;2023-10-19T08:46:43;23.27;;;11.48;;
52718;SDS011;38616;42.140;24.760;2023-10-19T08:49:13;21.08;;;13.25;;
52718;SDS011;38616;42.140;24.760;2023-10-19T08:51:45;20.35;;;11.73;;
52718;SDS011;38616;42.140;24.760;2023-10-19T08:54:12;20.90;;;11.23;;
52718;SDS011;38616;42.140;24.760;2023-10-19T08:56:40;23.95;;;13.10;;
52718;SDS011;38616;42.140;24.760;2023-10-19T08:59:12;20.30;;;11.80;;
52718;SDS011;38616;42.140;24.760;2023-10-19T09:01:40;16.77;;;10.57;;
52718;SDS011;38616;42.140;24.760;2023-10-19T09:04:09;25.38;;;10.77;;
52718;SDS011;38616;42.140;24.760;2023-10-19T09:06:36;19.77;;;10.70;;
52718;SDS011;38616;42.140;24.760;2023-10-19T09:09:09;17.30;;;10.75;;
52718;SDS011;38616;42.140;24.760;2023-10-19T09:11:45;21.45;;;11.23;;
52718;SDS011;38616;42.140;24.760;2023-10-19T09:14:11;18.13;;;10.73;;
52718;SDS011;38616;42.140;24.760;2023-10-19T09:16:56;16.60;;;10.63;;
52718;SDS011;38616;42.140;24.760;2023-10-19T09:22:05;20.13;;;11.77;;
52718;SDS011;38616;42.140;24.760;2023-10-19T09:24:49;21.67;;;11.52;;
52718;SDS011;38616;42.140;24.760;2023-10-19T09:27:18;24.85;;;10.32;;
52718;SDS011;38616;42.140;24.760;2023-10-19T09:29:45;18.77;;;11.10;;
52718;SDS011;38616;42.140;24.760;2023-10-19T09:32:11;14.65;;;9.38;;
52718;SDS011;38616;42.140;24.760;2023-10-19T09:34:39;14.75;;;8.63;;
52718;SDS011;38616;42.140;24.760;2023-10-19T09:37:09;14.70;;;9.10;;
52718;SDS011;38616;42.140;24.760;2023-10-19T09:39:36;17.73;;;9.48;;
52718;SDS011;38616;42.140;24.760;2023-10-19T09:42:02;17.35;;;9.50;;
52718;SDS011;38616;42.140;24.760;2023-10-19T09:44:37;14.18;;;8.30;;
52718;SDS011;38616;42.140;24.760;2023-10-19T09:47:05;16.58;;;8.15;;
52718;SDS011;38616;42.140;24.760;2023-10-19T09:49:36;13.88;;;7.97;;
52718;SDS011;38616;42.140;24.760;2023-10-19T09:52:01;11.65;;;8.00;;
52718;SDS011;38616;42.140;24.760;2023-10-19T09:54:52;14.93;;;8.88;;
52718;SDS011;38616;42.140;24.760;2023-10-19T09:57:39;16.23;;;8.65;;
52718;SDS011;38616;42.140;24.760;2023-10-19T10:00:16;14.55;;;8.05;;
52718;SDS011;38616;42.140;24.760;2023-10-19T10:02:48;15.75;;;7.45;;
52718;SDS011;38616;42.140;24.760;2023-10-19T10:10:43;16.98;;;9.25;;
52718;SDS011;38616;42.140;24.760;2023-10-19T10:15:55;13.65;;;8.23;;
52718;SDS011;38616;42.140;24.760;2023-10-19T10:18:26;11.98;;;7.22;;
52718;SDS011;38616;42.140;24.760;2023-10-19T10:23:57;12.10;;;8.25;;
52718;SDS011;38616;42.140;24.760;2023-10-19T10:26:28;13.98;;;7.80;;
52718;SDS011;38616;42.140;24.760;2023-10-19T10:31:34;12.75;;;7.45;;
52718;SDS011;38616;42.140;24.760;2023-10-19T10:34:06;14.57;;;8.90;;
52718;SDS011;38616;42.140;24.760;2023-10-19T10:39:33;17.55;;;8.82;;
52718;SDS011;38616;42.140;24.760;2023-10-19T10:42:06;13.25;;;8.35;;
52718;SDS011;38616;42.140;24.760;2023-10-19T10:44:45;16.63;;;8.93;;
52718;SDS011;38616;42.140;24.760;2023-10-19T10:55:10;18.52;;;7.75;;
52718;SDS011;38616;42.140;24.760;2023-10-19T10:57:37;13.50;;;7.85;;
52718;SDS011;38616;42.140;24.760;2023-10-19T11:00:07;18.27;;;9.38;;
52718;SDS011;38616;42.140;24.760;2023-10-19T11:02:36;17.60;;;8.82;;
52718;SDS011;38616;42.140;24.760;2023-10-19T11:05:05;18.73;;;9.45;;
52718;SDS011;38616;42.140;24.760;2023-10-19T11:07:36;16.30;;;8.65;;
52718;SDS011;38616;42.140;24.760;2023-10-19T11:10:05;16.60;;;10.23;;
52718;SDS011;38616;42.140;24.760;2023-10-19T11:12:31;13.65;;;9.15;;
52718;SDS011;38616;42.140;24.760;2023-10-19T11:14:57;29.88;;;16.05;;
52718;SDS011;38616;42.140;24.760;2023-10-19T11:17:24;22.83;;;12.02;;
52718;SDS011;38616;42.140;24.760;2023-10-19T11:19:58;16.38;;;9.95;;
52718;SDS011;38616;42.140;24.760;2023-10-19T11:22:25;17.02;;;9.43;;
52718;SDS011;38616;42.140;24.760;2023-10-19T11:24:52;17.95;;;10.15;;
52718;SDS011;38616;42.140;24.760;2023-10-19T11:27:25;29.23;;;11.40;;
52718;SDS011;38616;42.140;24.760;2023-10-19T11:32:21;19.27;;;10.48;;
52718;SDS011;38616;42.140;24.760;2023-10-19T11:34:50;19.95;;;10.00;;
52718;SDS011;38616;42.140;24.760;2023-10-19T11:37:19;18.90;;;9.70;;
52718;SDS011;38616;42.140;24.760;2023-10-19T11:39:45;15.40;;;8.20;;
52718;SDS011;38616;42.140;24.760;2023-10-19T11:42:11;19.80;;;8.20;;
52718;SDS011;38616;42.140;24.760;2023-10-19T11:44:37;14.98;;;7.90;;
52718;SDS011;38616;42.140;24.760;2023-10-19T11:47:03;15.60;;;7.88;;
52718;SDS011;38616;42.140;24.760;2023-10-19T11:49:28;15.90;;;9.40;;
52718;SDS011;38616;42.140;24.760;2023-10-19T11:51:54;20.30;;;9.43;;
52718;SDS011;38616;42.140;24.760;2023-10-19T11:54:19;22.17;;;10.40;;
52718;SDS011;38616;42.140;24.760;2023-10-19T11:56:45;19.95;;;10.10;;
52718;SDS011;38616;42.140;24.760;2023-10-19T11:59:11;18.00;;;10.23;;
52718;SDS011;38616;42.140;24.760;2023-10-19T12:01:37;14.63;;;8.43;;
52718;SDS011;38616;42.140;24.760;2023-10-19T12:04:04;14.15;;;7.70;;
52718;SDS011;38616;42.140;24.760;2023-10-19T12:06:30;14.10;;;7.35;;
52718;SDS011;38616;42.140;24.760;2023-10-19T12:08:56;16.02;;;8.75;;
52718;SDS011;38616;42.140;24.760;2023-10-19T12:13:49;17.73;;;8.18;;
52718;SDS011;38616;42.140;24.760;2023-10-19T12:16:15;16.83;;;9.60;;
52718;SDS011;38616;42.140;24.760;2023-10-19T12:21:17;14.70;;;8.02;;
52718;SDS011;38616;42.140;24.760;2023-10-19T12:23:43;12.15;;;6.45;;
52718;SDS011;38616;42.140;24.760;2023-10-19T12:26:09;11.68;;;7.32;;
52718;SDS011;38616;42.140;24.760;2023-10-19T12:28:38;15.27;;;7.10;;
52718;SDS011;38616;42.140;24.760;2023-10-19T12:31:05;16.58;;;8.13;;
52718;SDS011;38616;42.140;24.760;2023-10-19T12:33:35;16.45;;;6.70;;
52718;SDS011;38616;42.140;24.760;2023-10-19T12:36:07;12.40;;;6.90;;
52718;SDS011;38616;42.140;24.760;2023-10-19T12:38:51;14.82;;;7.07;;
52718;SDS011;38616;42.140;24.760;2023-10-19T12:41:20;11.77;;;6.97;;
52718;SDS011;38616;42.140;24.760;2023-10-19T12:43:46;13.02;;;6.93;;
52718;SDS011;38616;42.140;24.760;2023-10-19T12:46:13;13.90;;;8.45;;
52718;SDS011;38616;42.140;24.760;2023-10-19T12:48:42;14.45;;;6.57;;
52718;SDS011;38616;42.140;24.760;2023-10-19T12:51:08;10.45;;;6.57;;
52718;SDS011;38616;42.140;24.760;2023-10-19T12:56:05;12.27;;;6.88;;
52718;SDS011;38616;42.140;24.760;2023-10-19T12:58:32;15.55;;;6.32;;
52718;SDS011;38616;42.140;24.760;2023-10-19T13:00:58;9.60;;;5.82;;
52718;SDS011;38616;42.140;24.760;2023-10-19T13:03:24;10.65;;;5.70;;
52718;SDS011;38616;42.140;24.760;2023-10-19T13:05:56;15.38;;;5.68;;
52718;SDS011;38616;42.140;24.760;2023-10-19T13:08:23;9.85;;;5.60;;
52718;SDS011;38616;42.140;24.760;2023-10-19T13:10:49;10.40;;;5.47;;
52718;SDS011;38616;42.140;24.760;2023-10-19T13:13:15;12.00;;;6.43;;
52718;SDS011;38616;42.140;24.760;2023-10-19T13:15:43;14.93;;;6.10;;
52718;SDS011;38616;42.140;24.760;2023-10-19T13:18:10;9.18;;;5.25;;
52718;SDS011;38616;42.140;24.760;2023-10-19T13:23:04;10.63;;;5.82;;
52718;SDS011;38616;42.140;24.760;2023-10-19T13:25:37;10.35;;;5.85;;
52718;SDS011;38616;42.140;24.760;2023-10-19T13:28:11;9.90;;;5.40;;
52718;SDS011;38616;42.140;24.760;2023-10-19T13:30:45;8.77;;;5.63;;
52718;SDS011;38616;42.140;24.760;2023-10-19T13:33:12;11.98;;;6.40;;
52718;SDS011;38616;42.140;24.760;2023-10-19T13:35:39;13.15;;;6.85;;
52718;SDS011;38616;42.140;24.760;2023-10-19T13:38:06;10.68;;;5.88;;
52718;SDS011;38616;42.140;24.760;2023-10-19T13:40:33;11.70;;;6.30;;
52718;SDS011;38616;42.140;24.760;2023-10-19T13:43:00;10.95;;;6.15;;
52718;SDS011;38616;42.140;24.760;2023-10-19T13:45:27;10.85;;;6.50;;
52718;SDS011;38616;42.140;24.760;2023-10-19T13:47:52;10.45;;;6.63;;
52718;SDS011;38616;42.140;24.760;2023-10-19T13:50:23;11.75;;;6.97;;
52718;SDS011;38616;42.140;24.760;2023-10-19T13:52:51;14.43;;;7.35;;
52718;SDS011;38616;42.140;24.760;2023-10-19T13:55:19;18.60;;;9.63;;
52718;SDS011;38616;42.140;24.760;2023-10-19T13:57:46;14.65;;;7.55;;
52718;SDS011;38616;42.140;24.760;2023-10-19T14:00:13;15.45;;;7.53;;
52718;SDS011;38616;42.140;24.760;2023-10-19T14:02:47;13.05;;;7.68;;
52718;SDS011;38616;42.140;24.760;2023-10-19T14:05:13;13.68;;;7.13;;
52718;SDS011;38616;42.140;24.760;2023-10-19T14:07:41;13.73;;;7.43;;
52718;SDS011;38616;42.140;24.760;2023-10-19T14:10:07;15.35;;;7.22;;
52718;SDS011;38616;42.140;24.760;2023-10-19T14:12:45;10.60;;;6.25;;
52718;SDS011;38616;42.140;24.760;2023-10-19T14:15:15;18.20;;;7.22;;
52718;SDS011;38616;42.140;24.760;2023-10-19T14:18:02;12.05;;;6.70;;
52718;SDS011;38616;42.140;24.760;2023-10-19T14:20:28;13.15;;;6.30;;
52718;SDS011;38616;42.140;24.760;2023-10-19T14:25:21;11.68;;;6.38;;
52718;SDS011;38616;42.140;24.760;2023-10-19T14:30:21;11.13;;;6.63;;
52718;SDS011;38616;42.140;24.760;2023-10-19T14:32:48;14.38;;;7.13;;
52718;SDS011;38616;42.140;24.760;2023-10-19T14:35:18;11.30;;;6.30;;
52718;SDS011;38616;42.140;24.760;2023-10-19T14:37:48;12.82;;;6.05;;
52718;SDS011;38616;42.140;24.760;2023-10-19T14:40:15;13.45;;;6.40;;
52718;SDS011;38616;42.140;24.760;2023-10-19T14:42:42;11.07;;;6.38;;
52718;SDS011;38616;42.140;24.760;2023-10-19T14:45:09;13.40;;;6.30;;
52718;SDS011;38616;42.140;24.760;2023-10-19T14:47:37;9.98;;;5.45;;
52718;SDS011;38616;42.140;24.760;2023-10-19T14:50:03;12.82;;;7.30;;
52718;SDS011;38616;42.140;24.760;2023-10-19T14:52:29;13.65;;;6.32;;
52718;SDS011;38616;42.140;24.760;2023-10-19T14:54:55;9.05;;;6.10;;
52718;SDS011;38616;42.140;24.760;2023-10-19T14:57:21;13.38;;;6.10;;
52718;SDS011;38616;42.140;24.760;2023-10-19T14:59:47;10.82;;;6.70;;
52718;SDS011;38616;42.140;24.760;2023-10-19T15:02:13;12.52;;;5.93;;
52718;SDS011;38616;42.140;24.760;2023-10-19T15:04:39;13.07;;;6.65;;
52718;SDS011;38616;42.140;24.760;2023-10-19T15:07:04;13.82;;;6.78;;
52718;SDS011;38616;42.140;24.760;2023-10-19T15:09:30;11.85;;;6.25;;
52718;SDS011;38616;42.140;24.760;2023-10-19T15:11:56;13.60;;;7.20;;
52718;SDS011;38616;42.140;24.760;2023-10-19T15:14:22;14.15;;;6.57;;
52718;SDS011;38616;42.140;24.760;2023-10-19T15:16:47;11.38;;;6.68;;
52718;SDS011;38616;42.140;24.760;2023-10-19T15:19:12;14.10;;;6.82;;
52718;SDS011;38616;42.140;24.760;2023-10-19T15:21:42;15.70;;;7.07;;